Time;durP1;ratioP1;P1;durP2;ratioP2;P2;SDS_P1;SDS_P2;PMS_P1;PMS_P2;Temp;Humidity;BMP_temperature;BMP_pressure;BME280_temperature;BME280_humidity;BME280_pressure;Samples;Min_cycle;Max_cycle;Signal;HPM_P1;HPM_P2
2022/08/29 00:02:40;;;;;;;4.20;0.90;;;24.70;43.40;24.00;101737.00;;;;5070529;28;20094;-67
2022/08/29 00:05:32;;;;;;;4.68;1.00;;;24.70;43.20;24.00;101736.00;;;;5095809;28;20083;-68
2022/08/29 00:08:18;;;;;;;1.45;0.73;;;24.70;43.20;23.90;101731.00;;;;5097571;28;20122;-68
2022/08/29 00:11:05;;;;;;;2.10;0.88;;;24.80;43.30;23.90;101736.00;;;;5104097;28;20122;-67
2022/08/29 00:13:51;;;;;;;1.55;0.70;;;24.70;43.30;23.90;101735.00;;;;5082592;28;20039;-68
2022/08/29 00:16:37;;;;;;;1.23;0.82;;;24.70;43.30;23.90;101733.00;;;;5101087;28;20044;-67
2022/08/29 00:19:23;;;;;;;3.42;0.70;;;24.70;43.30;23.90;101741.00;;;;5094663;28;20108;-67
2022/08/29 00:22:09;;;;;;;2.58;0.70;;;24.70;43.30;23.90;101741.00;;;;5097560;28;20054;-68
2022/08/29 00:24:55;;;;;;;2.08;0.52;;;24.60;43.30;23.90;101744.00;;;;5102390;28;20043;-67
2022/08/29 00:27:41;;;;;;;2.55;0.80;;;24.60;43.20;23.90;101747.00;;;;5093770;28;20039;-67
2022/08/29 00:30:28;;;;;;;1.00;0.85;;;24.60;43.20;23.90;101752.00;;;;5100654;28;20151;-68
2022/08/29 00:33:14;;;;;;;1.50;0.90;;;24.60;43.20;23.80;101751.00;;;;5098130;28;20122;-67
2022/08/29 00:36:00;;;;;;;1.42;0.82;;;24.60;43.10;23.80;101748.00;;;;5081880;28;20040;-67
2022/08/29 00:38:46;;;;;;;2.88;0.73;;;24.60;43.10;23.80;101752.00;;;;5095989;28;20042;-67
2022/08/29 00:41:32;;;;;;;3.85;0.75;;;24.50;43.10;23.80;101749.00;;;;5098246;28;20308;-67
2022/08/29 00:44:18;;;;;;;4.00;0.90;;;24.60;43.00;23.80;101756.00;;;;5096190;28;20548;-67
2022/08/29 00:47:07;;;;;;;3.38;0.65;;;24.60;43.10;23.80;101762.00;;;;5079638;28;20503;-67
2022/08/29 00:49:54;;;;;;;2.90;0.85;;;24.50;43.10;23.80;101759.00;;;;5079921;28;20040;-67
2022/08/29 00:52:43;;;;;;;5.20;0.93;;;24.50;43.00;23.80;101761.00;;;;5069390;28;20077;-67
2022/08/29 00:55:32;;;;;;;2.42;0.70;;;24.50;43.00;23.80;101766.00;;;;5081885;28;20072;-67
2022/08/29 00:58:25;;;;;;;1.20;0.80;;;24.60;43.20;23.80;101763.00;;;;5094064;28;20058;-67
2022/08/29 01:01:11;;;;;;;2.33;0.82;;;24.60;43.10;23.80;101767.00;;;;5071772;28;20040;-67
2022/08/29 01:03:57;;;;;;;1.92;0.57;;;24.50;43.20;23.70;101760.00;;;;5094966;28;20131;-67
2022/08/29 01:06:44;;;;;;;1.05;0.60;;;24.50;43.10;23.70;101760.00;;;;5080550;28;20052;-67
2022/08/29 01:09:30;;;;;;;4.72;0.93;;;24.60;43.20;23.70;101764.00;;;;5070371;28;20485;-67
2022/08/29 01:12:16;;;;;;;2.17;0.80;;;24.50;43.10;23.70;101756.00;;;;5076120;28;20044;-67
2022/08/29 01:15:06;;;;;;;1.30;0.65;;;24.50;43.10;23.70;101759.00;;;;5078267;28;20050;-67
2022/08/29 01:17:52;;;;;;;0.98;0.57;;;24.50;43.10;23.70;101762.00;;;;5072944;28;20051;-67
2022/08/29 01:21:12;;;;;;;4.97;1.10;;;24.40;43.00;23.70;101764.00;;;;5086681;28;20047;-67
2022/08/29 01:24:35;;;;;;;;;;;24.40;42.90;23.60;101768.00;;;;5093307;28;20469;-67
2022/08/29 01:27:24;;;;;;;2.08;0.80;;;24.50;43.20;23.60;101772.00;;;;5096168;28;19916;-68
2022/08/29 01:30:10;;;;;;;3.80;0.70;;;24.50;43.30;23.60;101762.00;;;;5077018;28;20416;-67
2022/08/29 01:32:57;;;;;;;0.82;0.50;;;24.40;43.10;23.60;101770.00;;;;5095408;28;20044;-67
2022/08/29 01:35:43;;;;;;;3.67;0.85;;;24.40;43.20;23.60;101765.00;;;;5098992;28;20036;-67
2022/08/29 01:38:29;;;;;;;0.70;0.60;;;24.40;43.20;23.60;101769.00;;;;5094332;28;22434;-67
2022/08/29 01:41:17;;;;;;;1.63;0.68;;;24.40;43.20;23.60;101761.00;;;;5101903;28;20043;-67
2022/08/29 01:44:12;;;;;;;0.80;0.68;;;24.40;43.00;23.60;101757.00;;;;5081801;28;20089;-67
2022/08/29 01:46:58;;;;;;;1.58;0.82;;;24.40;43.10;23.60;101764.00;;;;5069347;28;20065;-67
2022/08/29 01:49:44;;;;;;;2.25;0.90;;;24.40;43.00;23.60;101761.00;;;;5096055;28;20050;-67
2022/08/29 01:52:31;;;;;;;2.13;0.75;;;24.30;43.10;23.50;101767.00;;;;5091075;28;20035;-67
2022/08/29 01:55:17;;;;;;;1.70;0.80;;;24.40;43.00;23.50;101770.00;;;;5097689;28;20476;-67
2022/08/29 01:58:03;;;;;;;1.02;0.68;;;24.30;42.90;23.50;101766.00;;;;5092581;28;20044;-67
2022/08/29 02:00:50;;;;;;;1.47;0.90;;;24.40;43.00;23.50;101762.00;;;;5081118;28;20048;-67
2022/08/29 02:03:36;;;;;;;3.40;0.90;;;24.30;43.00;23.50;101768.00;;;;5083821;28;20126;-67
2022/08/29 02:06:22;;;;;;;2.33;0.77;;;24.30;42.90;23.50;101763.00;;;;5077099;28;20044;-67
2022/08/29 02:09:08;;;;;;;1.65;0.70;;;24.30;43.00;23.50;101772.00;;;;5082570;28;20489;-67
2022/08/29 02:11:56;;;;;;;1.83;0.65;;;24.30;43.10;23.50;101764.00;;;;5091241;28;20048;-67
2022/08/29 02:14:43;;;;;;;3.35;0.70;;;24.20;43.00;23.50;101762.00;;;;5086679;28;20047;-67
2022/08/29 02:17:29;;;;;;;2.13;0.70;;;24.20;42.90;23.50;101763.00;;;;5071004;28;20401;-67
2022/08/29 02:20:16;;;;;;;1.55;0.95;;;24.30;43.60;23.50;101755.00;;;;5091180;28;20042;-68
2022/08/29 02:23:02;;;;;;;1.35;0.73;;;24.20;42.80;23.50;101761.00;;;;5084583;28;20040;-67
2022/08/29 02:25:48;;;;;;;1.90;0.68;;;24.20;42.70;23.50;101772.00;;;;5076439;28;20136;-67
2022/08/29 02:28:35;;;;;;;1.52;0.88;;;24.20;42.60;23.50;101775.00;;;;5095197;28;20271;-67
2022/08/29 02:31:21;;;;;;;3.50;0.88;;;24.20;42.80;23.50;101772.00;;;;5094935;28;20096;-67
2022/08/29 02:34:07;;;;;;;1.40;0.80;;;24.20;42.90;23.50;101771.00;;;;5096781;28;20126;-67
2022/08/29 02:36:53;;;;;;;2.80;0.65;;;24.20;43.60;23.50;101773.00;;;;5083457;28;20039;-68
2022/08/29 02:39:40;;;;;;;1.63;0.80;;;24.20;42.80;23.50;101779.00;;;;5099531;28;20093;-67
2022/08/29 02:42:26;;;;;;;1.60;1.10;;;24.20;42.80;23.40;101783.00;;;;5099348;28;20046;-67
2022/08/29 02:45:12;;;;;;;2.05;0.93;;;24.20;42.80;23.40;101774.00;;;;5093138;28;20058;-67
2022/08/29 02:47:58;;;;;;;1.33;0.80;;;24.20;42.80;23.40;101773.00;;;;5099877;28;20032;-67
2022/08/29 02:50:49;;;;;;;1.40;0.70;;;24.20;42.60;23.40;101775.00;;;;5093820;28;20043;-67
2022/08/29 02:53:35;;;;;;;2.60;1.15;;;24.20;42.70;23.40;101774.00;;;;5067859;28;20177;-67
2022/08/29 02:56:21;;;;;;;2.15;0.95;;;24.00;42.60;23.40;101775.00;;;;5094398;28;20409;-67
2022/08/29 02:59:07;;;;;;;1.48;0.82;;;24.20;42.60;23.40;101768.00;;;;5081902;28;20040;-67
2022/08/29 03:01:53;;;;;;;2.92;1.30;;;24.10;42.60;23.40;101762.00;;;;5080524;28;20036;-67
2022/08/29 03:04:39;;;;;;;2.72;0.88;;;24.20;42.50;23.40;101772.00;;;;5101845;28;20101;-67
2022/08/29 03:07:26;;;;;;;2.40;0.95;;;24.10;42.50;23.40;101781.00;;;;5093627;28;20055;-67
2022/08/29 03:10:12;;;;;;;4.53;1.00;;;24.20;42.60;23.40;101786.00;;;;5103647;28;20035;-67
2022/08/29 03:12:58;;;;;;;1.83;1.00;;;24.10;42.40;23.40;101773.00;;;;5072823;28;20031;-67
2022/08/29 03:15:44;;;;;;;2.50;0.95;;;24.10;42.40;23.30;101773.00;;;;5086229;28;20048;-67
2022/08/29 03:18:30;;;;;;;2.28;0.98;;;24.10;42.40;23.30;101771.00;;;;5086876;28;20493;-67
2022/08/29 03:21:19;;;;;;;1.35;0.98;;;24.10;42.50;23.30;101775.00;;;;5091053;28;20043;-67
2022/08/29 03:24:05;;;;;;;3.92;1.00;;;24.10;42.40;23.30;101772.00;;;;5095449;28;20561;-67
2022/08/29 03:26:51;;;;;;;2.97;1.00;;;24.10;43.00;23.30;101763.00;;;;5101977;28;20138;-67
2022/08/29 03:29:37;;;;;;;3.33;0.75;;;24.10;42.40;23.30;101763.00;;;;5104980;28;20036;-68
2022/08/29 03:32:24;;;;;;;2.03;1.00;;;24.10;42.40;23.30;101764.00;;;;5100734;28;20451;-67
2022/08/29 03:35:10;;;;;;;1.63;1.20;;;24.00;42.30;23.30;101775.00;;;;5082087;28;20043;-67
2022/08/29 03:37:57;;;;;;;2.70;0.95;;;24.10;42.50;23.30;101768.00;;;;5101182;28;20097;-67
2022/08/29 03:40:43;;;;;;;1.65;1.08;;;24.00;42.20;23.30;101764.00;;;;5083274;28;20443;-67
2022/08/29 03:43:29;;;;;;;2.65;1.00;;;24.00;42.40;23.30;101767.00;;;;5088087;28;20044;-67
2022/08/29 03:46:15;;;;;;;2.25;1.05;;;24.00;42.40;23.30;101766.00;;;;5082220;28;20499;-67
2022/08/29 03:49:01;;;;;;;2.83;1.00;;;24.00;42.30;23.30;101767.00;;;;5104664;28;20040;-67
2022/08/29 03:51:48;;;;;;;4.00;1.08;;;24.00;42.30;23.20;101770.00;;;;5095884;28;20044;-67
2022/08/29 03:54:35;;;;;;;4.88;1.42;;;24.10;42.40;23.20;101767.00;;;;5098826;28;20048;-67
2022/08/29 03:57:21;;;;;;;2.50;1.13;;;24.00;42.50;23.20;101766.00;;;;5086920;28;20516;-67
2022/08/29 04:00:11;;;;;;;3.58;1.10;;;24.00;42.50;23.20;101764.00;;;;5086281;28;20566;-67
2022/08/29 04:02:57;;;;;;;1.95;0.90;;;24.00;42.40;23.20;101759.00;;;;5085499;28;20042;-67
2022/08/29 04:05:43;;;;;;;2.53;1.40;;;24.00;42.50;23.20;101776.00;;;;5096997;28;20532;-67
2022/08/29 04:08:29;;;;;;;2.58;1.02;;;24.00;42.40;23.20;101773.00;;;;5094615;28;20039;-67
2022/08/29 04:11:17;;;;;;;2.15;1.10;;;24.00;42.60;23.20;101762.00;;;;5102129;28;20047;-67
2022/08/29 04:14:03;;;;;;;2.88;1.30;;;24.00;42.30;23.20;101772.00;;;;5100581;28;20040;-67
2022/08/29 04:16:49;;;;;;;2.42;1.35;;;23.90;42.30;23.20;101771.00;;;;5101593;28;20043;-67
2022/08/29 04:19:35;;;;;;;1.92;1.05;;;24.00;42.40;23.20;101759.00;;;;5096646;28;20047;-67
2022/08/29 04:22:21;;;;;;;1.95;1.20;;;24.00;42.30;23.20;101760.00;;;;5073217;28;20032;-67
2022/08/29 04:25:10;;;;;;;5.03;1.30;;;23.90;42.20;23.20;101759.00;;;;5102754;28;20044;-67
2022/08/29 04:27:56;;;;;;;2.72;1.33;;;23.90;42.30;23.20;101765.00;;;;5084866;28;20058;-67
2022/08/29 04:30:50;;;;;;;1.20;0.80;;;23.90;42.30;23.20;101771.00;;;;5096782;28;20036;-68
2022/08/29 04:33:36;;;;;;;2.28;1.00;;;24.00;42.10;23.10;101769.00;;;;5076916;28;20048;-68
2022/08/29 04:36:22;;;;;;;2.20;0.98;;;24.00;42.30;23.10;101766.00;;;;5104879;28;20396;-68
2022/08/29 04:39:08;;;;;;;2.78;0.93;;;23.90;42.10;23.10;101774.00;;;;5102886;28;20479;-68
2022/08/29 04:41:55;;;;;;;2.80;0.90;;;23.90;42.20;23.10;101782.00;;;;5077655;28;20054;-68
2022/08/29 04:44:41;;;;;;;1.25;0.93;;;23.90;42.20;23.10;101793.00;;;;5095238;28;20091;-67
2022/08/29 04:47:27;;;;;;;1.10;0.85;;;23.80;42.20;23.10;101795.00;;;;5099339;28;20044;-68
2022/08/29 04:50:15;;;;;;;2.15;1.30;;;23.90;42.20;23.10;101792.00;;;;5095862;28;20089;-68
2022/08/29 04:53:02;;;;;;;2.10;1.17;;;23.90;42.20;23.10;101798.00;;;;5095678;28;20105;-68
2022/08/29 04:56:14;;;;;;;1.40;0.95;;;23.80;42.20;23.10;101795.00;;;;5098008;28;20647;-68
2022/08/29 04:59:01;;;;;;;3.40;1.30;;;23.80;42.20;23.10;101793.00;;;;5080324;28;20409;-68
2022/08/29 05:01:47;;;;;;;3.33;1.15;;;23.80;42.10;23.00;101795.00;;;;5094588;28;20040;-68
2022/08/29 05:04:33;;;;;;;2.20;0.82;;;23.80;42.20;23.10;101796.00;;;;5093608;28;20070;-68
2022/08/29 05:07:20;;;;;;;2.15;1.10;;;23.80;42.20;23.00;101796.00;;;;5077325;28;20032;-68
2022/08/29 05:10:09;;;;;;;5.80;1.10;;;23.80;42.20;23.00;101802.00;;;;5100126;28;20048;-68
2022/08/29 05:12:55;;;;;;;2.15;1.10;;;23.80;42.10;23.00;101805.00;;;;5083835;28;20130;-67
2022/08/29 05:15:42;;;;;;;2.95;1.00;;;23.80;42.10;23.00;101803.00;;;;5079129;28;20052;-67
2022/08/29 05:18:28;;;;;;;1.15;0.80;;;23.80;42.10;23.00;101790.00;;;;5095347;28;20331;-67
2022/08/29 05:21:41;;;;;;;1.88;1.02;;;23.80;42.20;23.00;101791.00;;;;5099116;28;20520;-67
2022/08/29 05:24:27;;;;;;;3.38;1.27;;;23.80;42.20;23.00;101795.00;;;;5083035;28;20105;-67
2022/08/29 05:27:18;;;;;;;2.28;1.13;;;23.80;42.10;23.00;101797.00;;;;5099920;28;20138;-67
2022/08/29 05:30:05;;;;;;;1.70;1.10;;;23.80;42.10;23.00;101798.00;;;;5096110;28;20040;-67
2022/08/29 05:32:53;;;;;;;1.73;0.73;;;23.80;42.30;23.00;101803.00;;;;5080890;28;20481;-67
2022/08/29 05:35:40;;;;;;;3.08;1.17;;;23.70;42.20;23.00;101803.00;;;;5098666;28;20104;-67
2022/08/29 05:38:26;;;;;;;2.30;1.02;;;23.80;42.20;23.00;101804.00;;;;5092898;28;20138;-67
2022/08/29 05:41:12;;;;;;;3.05;1.02;;;23.80;42.10;23.00;101813.00;;;;5080408;28;20115;-67
2022/08/29 05:43:58;;;;;;;1.45;0.85;;;23.80;42.20;23.00;101807.00;;;;5089658;28;20044;-67
2022/08/29 05:46:44;;;;;;;1.73;0.70;;;23.80;42.10;23.00;101819.00;;;;5097427;28;20064;-67
2022/08/29 05:49:30;;;;;;;2.08;0.80;;;23.80;42.20;23.00;101817.00;;;;5083537;28;20047;-67
2022/08/29 05:52:18;;;;;;;1.65;0.80;;;23.70;42.20;23.00;101822.00;;;;5098177;28;20096;-67
2022/08/29 05:55:04;;;;;;;;;;;23.80;42.20;23.00;101824.00;;;;5084855;28;20047;-67
2022/08/29 05:57:53;;;;;;;1.75;0.68;;;23.80;42.40;23.00;101823.00;;;;5093614;28;20341;-67
2022/08/29 06:00:40;;;;;;;2.55;0.80;;;23.80;42.20;23.00;101823.00;;;;5095827;28;20191;-67
2022/08/29 06:03:26;;;;;;;1.45;1.17;;;23.80;42.20;23.00;101822.00;;;;5096598;28;20094;-67
2022/08/29 06:06:12;;;;;;;2.72;0.93;;;23.80;42.30;23.00;101818.00;;;;5091388;28;20034;-67
2022/08/29 06:08:59;;;;;;;1.30;0.90;;;23.80;42.20;23.00;101824.00;;;;5096500;28;20031;-67
2022/08/29 06:11:53;;;;;;;1.55;0.88;;;23.90;42.20;23.00;101813.00;;;;5070193;28;21298;-67
2022/08/29 06:14:40;;;;;;;1.98;0.93;;;23.80;42.40;23.00;101811.00;;;;5097536;28;20038;-67
2022/08/29 06:17:26;;;;;;;1.02;0.90;;;23.80;42.30;23.00;101824.00;;;;5067751;28;20054;-67
2022/08/29 06:20:13;;;;;;;1.37;0.90;;;23.80;42.40;23.00;101829.00;;;;5097576;28;20461;-67
2022/08/29 06:22:59;;;;;;;1.92;1.00;;;23.80;42.50;23.00;101821.00;;;;5078915;28;20036;-67
2022/08/29 06:25:54;;;;;;;1.60;1.05;;;23.70;42.40;23.00;101816.00;;;;5093209;28;20055;-67
2022/08/29 06:28:44;;;;;;;1.08;0.77;;;23.80;42.60;23.00;101824.00;;;;5072349;28;20050;-67
2022/08/29 06:31:30;;;;;;;1.23;0.70;;;23.80;42.70;23.10;101821.00;;;;5094169;28;20040;-68
2022/08/29 06:34:16;;;;;;;2.28;1.17;;;23.80;42.60;23.10;101817.00;;;;5085187;28;20039;-67
2022/08/29 06:37:03;;;;;;;2.15;0.98;;;23.90;42.70;23.10;101814.00;;;;5091518;28;20455;-67
2022/08/29 06:39:49;;;;;;;1.65;0.98;;;23.90;42.70;23.10;101823.00;;;;5094607;28;20044;-67
2022/08/29 06:42:35;;;;;;;1.63;0.98;;;23.90;42.70;23.10;101822.00;;;;5095609;28;20050;-68
2022/08/29 06:45:21;;;;;;;1.65;1.00;;;23.90;42.80;23.10;101823.00;;;;5097716;28;20409;-68
2022/08/29 06:48:07;;;;;;;1.17;0.80;;;23.90;42.80;23.10;101827.00;;;;5088012;28;20036;-67
2022/08/29 06:50:53;;;;;;;1.55;0.90;;;24.00;42.90;23.10;101827.00;;;;5088418;28;20051;-67
2022/08/29 06:53:39;;;;;;;1.38;0.50;;;24.00;42.90;23.10;101828.00;;;;5099603;28;20198;-67
2022/08/29 06:56:25;;;;;;;2.15;0.93;;;23.90;42.90;23.20;101822.00;;;;5102095;28;20117;-67
2022/08/29 06:59:11;;;;;;;1.92;0.80;;;24.00;42.90;23.20;101829.00;;;;5084840;28;20044;-67
2022/08/29 07:01:57;;;;;;;1.85;0.90;;;24.00;42.90;23.20;101829.00;;;;5098419;28;20140;-67
2022/08/29 07:04:43;;;;;;;3.38;0.98;;;24.00;43.00;23.20;101818.00;;;;5101070;28;20040;-67
2022/08/29 07:07:29;;;;;;;1.85;1.05;;;24.00;43.00;23.20;101825.00;;;;5096516;28;20036;-67
2022/08/29 07:10:17;;;;;;;1.35;0.98;;;24.00;43.00;23.20;101819.00;;;;5093248;27;20038;-67
2022/08/29 07:13:03;;;;;;;5.30;1.10;;;24.00;43.10;23.20;101819.00;;;;5080852;27;20067;-67
2022/08/29 07:15:49;;;;;;;2.30;1.20;;;24.00;43.10;23.20;101820.00;;;;5108369;27;20067;-67
2022/08/29 07:18:36;;;;;;;1.02;0.73;;;24.10;43.10;23.20;101815.00;;;;5090975;28;20051;-67
2022/08/29 07:21:23;;;;;;;1.38;1.02;;;24.10;43.20;23.20;101815.00;;;;5098331;27;20047;-67
2022/08/29 07:24:09;;;;;;;2.17;1.15;;;24.00;43.10;23.20;101816.00;;;;5090323;27;20090;-67
2022/08/29 07:26:55;;;;;;;1.35;1.10;;;24.00;43.10;23.30;101828.00;;;;5101877;27;20119;-67
2022/08/29 07:29:41;;;;;;;2.08;1.08;;;24.10;43.20;23.30;101826.00;;;;5111313;27;20082;-67
2022/08/29 07:32:28;;;;;;;2.50;1.30;;;24.20;43.30;23.30;101823.00;;;;5082460;28;20048;-67
2022/08/29 07:35:14;;;;;;;1.73;1.10;;;24.10;43.20;23.30;101831.00;;;;5080549;27;20122;-67
2022/08/29 07:38:01;;;;;;;1.60;1.00;;;24.20;43.30;23.30;101833.00;;;;5100270;27;20086;-67
2022/08/29 07:40:47;;;;;;;1.92;1.00;;;24.20;43.30;23.30;101843.00;;;;5101560;27;20116;-67
2022/08/29 07:43:34;;;;;;;2.60;1.00;;;24.20;43.30;23.30;101843.00;;;;5100948;27;20402;-67
2022/08/29 07:46:20;;;;;;;1.77;1.00;;;24.10;43.20;23.30;101838.00;;;;5084825;28;20036;-67
2022/08/29 07:49:06;;;;;;;1.55;1.20;;;24.20;43.20;23.30;101832.00;;;;5088135;28;20090;-67
2022/08/29 07:51:52;;;;;;;2.20;1.35;;;24.20;43.30;23.30;101830.00;;;;5082386;28;20039;-67
2022/08/29 07:54:38;;;;;;;2.08;1.10;;;24.20;43.40;23.30;101831.00;;;;5088756;28;20054;-67
2022/08/29 07:57:25;;;;;;;2.67;1.25;;;24.20;43.30;23.30;101836.00;;;;5089478;28;20054;-67
2022/08/29 08:00:11;;;;;;;1.85;0.88;;;24.20;43.40;23.30;101846.00;;;;5085713;27;20438;-67
2022/08/29 08:02:57;;;;;;;1.50;1.10;;;24.20;43.30;23.40;101842.00;;;;5105574;27;20032;-67
2022/08/29 08:05:43;;;;;;;2.38;1.33;;;24.30;43.40;23.40;101838.00;;;;5101634;27;20554;-67
2022/08/29 08:08:29;;;;;;;2.67;1.02;;;24.20;43.30;23.40;101845.00;;;;5100110;27;20044;-67
2022/08/29 08:11:16;;;;;;;2.30;1.25;;;24.30;43.30;23.40;101838.00;;;;5108510;27;20039;-67
2022/08/29 08:14:02;;;;;;;2.05;1.17;;;24.30;43.40;23.40;101840.00;;;;5085769;27;20048;-67
2022/08/29 08:16:48;;;;;;;2.03;1.05;;;24.30;43.40;23.40;101834.00;;;;5105069;27;20183;-67
2022/08/29 08:19:34;;;;;;;3.35;1.40;;;24.20;43.30;23.40;101834.00;;;;5089226;28;20040;-67
2022/08/29 08:22:20;;;;;;;2.20;1.20;;;24.30;43.40;23.40;101847.00;;;;5096600;27;20028;-67
2022/08/29 08:25:07;;;;;;;1.88;1.20;;;24.30;43.50;23.40;101845.00;;;;5103759;27;20043;-68
2022/08/29 08:27:53;;;;;;;1.50;1.02;;;24.30;43.50;23.40;101839.00;;;;5089324;28;20177;-67
2022/08/29 08:30:39;;;;;;;2.28;1.38;;;24.30;43.40;23.40;101832.00;;;;5095930;27;20040;-67
2022/08/29 08:33:25;;;;;;;3.00;1.38;;;24.30;43.50;23.40;101842.00;;;;5094871;28;20158;-67
2022/08/29 08:36:19;;;;;;;3.47;1.20;;;24.40;43.50;23.40;101837.00;;;;5114801;27;20499;-67
2022/08/29 08:39:05;;;;;;;3.63;1.50;;;24.40;43.60;23.40;101841.00;;;;5087657;27;20043;-67
2022/08/29 08:41:56;;;;;;;3.08;1.42;;;24.40;43.60;23.50;101840.00;;;;5102940;27;20031;-67
2022/08/29 08:44:48;;;;;;;1.55;1.10;;;24.40;43.60;23.40;101842.00;;;;5077919;28;20505;-67
2022/08/29 08:47:47;;;;;;;2.72;1.60;;;24.40;43.60;23.50;101847.00;;;;5098409;27;20032;-67
2022/08/29 08:50:52;;;;;;;1.80;1.27;;;24.40;43.60;23.50;101844.00;;;;5091661;27;20035;-67
2022/08/29 08:53:40;;;;;;;2.90;1.52;;;24.40;43.70;23.50;101848.00;;;;5079164;27;20046;-67
2022/08/29 08:56:45;;;;;;;2.55;1.20;;;24.40;43.70;23.50;101850.00;;;;5085037;27;20082;-67
2022/08/29 08:59:46;;;;;;;2.03;1.25;;;24.40;43.70;23.50;101859.00;;;;5094311;27;20125;-67
2022/08/29 09:03:01;;;;;;;1.92;1.20;;;24.40;43.70;23.50;101852.00;;;;5073825;28;20492;-67
2022/08/29 09:06:06;;;;;;;3.80;1.30;;;24.40;43.80;23.50;101852.00;;;;5090521;28;20084;-67
2022/08/29 09:09:42;;;;;;;2.97;1.50;;;24.50;43.90;23.50;101853.00;;;;5094263;27;20485;-68
2022/08/29 09:12:50;;;;;;;2.38;1.60;;;24.40;43.90;23.50;101855.00;;;;5093304;27;20090;-67
2022/08/29 09:15:43;;;;;;;2.45;1.10;;;24.40;43.90;23.50;101854.00;;;;5096977;27;20047;-67
2022/08/29 09:18:39;;;;;;;2.20;1.30;;;24.40;44.10;23.50;101855.00;;;;5084983;27;20046;-67
2022/08/29 09:21:25;;;;;;;1.95;1.30;;;24.50;44.10;23.50;101859.00;;;;5079872;27;20040;-67
2022/08/29 09:24:47;;;;;;;2.42;1.15;;;24.50;44.10;23.50;101851.00;;;;5089199;27;20282;-67
2022/08/29 09:27:34;;;;;;;3.03;1.20;;;24.50;44.20;23.50;101847.00;;;;5079188;27;20039;-67
2022/08/29 09:30:26;;;;;;;3.23;1.20;;;24.50;44.10;23.50;101846.00;;;;5098177;27;20032;-67
2022/08/29 09:33:14;;;;;;;1.48;1.13;;;24.50;44.10;23.60;101844.00;;;;5084960;28;20040;-67
2022/08/29 09:36:01;;;;;;;2.72;1.23;;;24.60;44.20;23.60;101842.00;;;;5082280;28;20036;-67
2022/08/29 09:39:18;;;;;;;2.05;1.23;;;24.50;44.90;23.60;101840.00;;;;5095962;27;20122;-67
2022/08/29 09:42:10;;;;;;;2.47;1.30;;;24.60;44.20;23.60;101840.00;;;;5083140;27;20508;-67
2022/08/29 09:44:59;;;;;;;3.30;1.33;;;24.60;44.20;23.60;101838.00;;;;5095620;27;20071;-67
2022/08/29 09:47:45;;;;;;;3.28;1.30;;;24.60;44.30;23.60;101839.00;;;;5080771;27;20040;-67
2022/08/29 09:50:31;;;;;;;2.95;1.35;;;24.60;44.30;23.60;101834.00;;;;5103204;28;20047;-68
2022/08/29 09:53:21;;;;;;;2.40;1.05;;;24.60;44.30;23.60;101841.00;;;;5081319;28;20043;-67
2022/08/29 09:56:15;;;;;;;3.55;1.45;;;24.60;44.30;23.60;101838.00;;;;5090895;27;20071;-67
2022/08/29 09:59:20;;;;;;;2.30;1.17;;;24.60;44.40;23.60;101836.00;;;;5074965;28;20173;-67
2022/08/29 10:02:25;;;;;;;2.38;1.45;;;24.60;44.40;23.60;101835.00;;;;5086483;28;20042;-67
2022/08/29 10:05:33;;;;;;;2.58;1.08;;;24.60;44.40;23.60;101837.00;;;;5085306;28;20042;-67
2022/08/29 10:08:34;;;;;;;2.15;1.40;;;24.60;44.40;23.60;101839.00;;;;5093709;28;20040;-67
2022/08/29 10:11:36;;;;;;;1.98;0.98;;;24.60;45.10;23.60;101832.00;;;;5100692;27;20124;-67
2022/08/29 10:14:46;;;;;;;2.75;1.27;;;24.60;44.40;23.60;101835.00;;;;5090410;28;20050;-67
2022/08/29 10:21:31;;;;;;;2.60;1.20;;;24.60;44.50;23.60;101844.00;;;;5088504;28;20040;-67
2022/08/29 10:24:47;;;;;;;3.03;1.08;;;24.60;44.50;23.60;101847.00;;;;5080166;28;20032;-67
2022/08/29 10:28:08;;;;;;;2.10;1.15;;;24.60;44.60;23.60;101845.00;;;;5072757;28;20078;-67
2022/08/29 10:31:03;;;;;;;1.77;1.08;;;24.60;44.60;23.60;101842.00;;;;5063564;28;20163;-67
2022/08/29 10:34:01;;;;;;;3.00;1.25;;;24.60;44.60;23.70;101837.00;;;;5071299;28;20040;-68
2022/08/29 10:36:56;;;;;;;2.15;1.48;;;24.60;44.50;23.60;101840.00;;;;5093360;28;20477;-67
2022/08/29 10:40:02;;;;;;;1.83;0.95;;;24.60;44.60;23.70;101840.00;;;;5085274;28;20036;-67
2022/08/29 10:42:48;;;;;;;1.88;1.20;;;24.70;44.70;23.70;101840.00;;;;5063851;28;20239;-67
2022/08/29 10:46:00;;;;;;;6.47;1.20;;;24.60;44.60;23.70;101830.00;;;;5064559;28;20495;-67
2022/08/29 10:49:38;;;;;;;2.55;1.02;;;24.60;44.70;23.70;101830.00;;;;5067172;28;20170;-67
2022/08/29 10:52:49;;;;;;;1.73;1.00;;;24.60;44.70;23.70;101830.00;;;;5075936;28;20039;-67
2022/08/29 10:55:52;;;;;;;1.88;1.15;;;24.70;44.70;23.70;101822.00;;;;5083034;28;20135;-67
2022/08/29 10:59:17;;;;;;;2.13;1.20;;;24.70;44.80;23.70;101824.00;;;;5074441;28;20140;-67
2022/08/29 11:02:20;;;;;;;4.15;1.15;;;24.70;44.90;23.70;101818.00;;;;5090044;28;20051;-67
2022/08/29 11:05:17;;;;;;;2.85;1.17;;;24.70;44.90;23.70;101823.00;;;;5094809;28;20040;-67
2022/08/29 11:08:08;;;;;;;1.98;1.35;;;24.70;44.90;23.70;101823.00;;;;5081051;28;20505;-67
2022/08/29 11:10:54;;;;;;;1.75;1.10;;;24.70;44.90;23.70;101823.00;;;;5067857;28;20075;-67
2022/08/29 11:13:50;;;;;;;1.83;1.13;;;24.70;44.90;23.70;101821.00;;;;5087573;28;20097;-67
2022/08/29 11:16:40;;;;;;;3.78;1.17;;;24.70;44.90;23.70;101813.00;;;;5079919;28;20039;-67
2022/08/29 11:20:10;;;;;;;1.38;1.08;;;24.70;44.90;23.70;101815.00;;;;5075014;28;20039;-67
2022/08/29 11:23:14;;;;;;;;;;;24.70;44.90;23.70;101813.00;;;;5083343;28;20043;-67
2022/08/29 11:26:27;;;;;;;1.98;1.00;;;24.70;44.80;23.70;101809.00;;;;5073977;28;19915;-67
2022/08/29 11:29:45;;;;;;;2.63;1.10;;;24.80;44.80;23.70;101816.00;;;;5083626;27;20035;-67
2022/08/29 11:32:38;;;;;;;2.75;1.30;;;24.70;44.90;23.70;101802.00;;;;5090108;28;20036;-67
2022/08/29 11:36:03;;;;;;;1.48;1.00;;;24.80;45.00;23.70;101801.00;;;;5104534;27;20189;-67
2022/08/29 11:39:14;;;;;;;2.08;1.10;;;24.70;45.10;23.70;101803.00;;;;5078656;28;20373;-67
2022/08/29 11:42:03;;;;;;;1.63;1.13;;;24.70;45.00;23.70;101798.00;;;;5088428;28;20063;-68
2022/08/29 11:44:52;;;;;;;3.03;1.30;;;24.80;45.20;23.70;101783.00;;;;5078311;27;20055;-67
2022/08/29 11:47:45;;;;;;;1.80;1.15;;;24.80;45.20;23.80;101778.00;;;;5095574;27;20063;-67
2022/08/29 11:50:36;;;;;;;4.82;1.40;;;24.70;45.20;23.80;101783.00;;;;5087919;27;20055;-68
2022/08/29 11:53:33;;;;;;;2.00;1.27;;;24.80;45.30;23.80;101776.00;;;;5088659;28;20070;-67
2022/08/29 11:56:23;;;;;;;2.92;1.27;;;24.80;45.30;23.80;101778.00;;;;5090128;28;20040;-67
2022/08/29 11:59:10;;;;;;;3.08;1.08;;;24.80;45.30;23.80;101779.00;;;;5080003;27;20075;-67
2022/08/29 12:01:59;;;;;;;4.15;1.30;;;24.80;45.40;23.80;101776.00;;;;5073162;28;21786;-67
2022/08/29 12:04:54;;;;;;;3.67;2.03;;;24.80;45.40;23.80;101775.00;;;;5074405;28;20043;-67
2022/08/29 12:08:03;;;;;;;2.15;1.13;;;24.80;45.50;23.80;101771.00;;;;5107471;27;20035;-67
2022/08/29 12:10:53;;;;;;;3.03;1.42;;;24.80;45.40;23.80;101764.00;;;;5079710;28;20081;-67
2022/08/29 12:13:45;;;;;;;2.75;1.20;;;24.80;45.40;23.80;101767.00;;;;5081869;27;20036;-68
2022/08/29 12:16:58;;;;;;;3.00;1.00;;;24.80;45.50;23.80;101768.00;;;;5087953;28;20027;-68
2022/08/29 12:20:12;;;;;;;3.65;1.27;;;24.90;45.40;23.80;101765.00;;;;5068599;28;20047;-67
2022/08/29 12:23:26;;;;;;;2.75;1.23;;;24.80;45.40;23.80;101761.00;;;;5104965;27;20044;-67
2022/08/29 12:26:43;;;;;;;2.55;1.30;;;24.80;45.50;23.80;101761.00;;;;5095214;27;20062;-67
2022/08/29 12:29:41;;;;;;;3.05;0.90;;;24.80;45.60;23.80;101763.00;;;;5069170;28;20048;-67
2022/08/29 12:32:47;;;;;;;3.43;1.23;;;24.80;45.50;23.80;101763.00;;;;5089502;27;20073;-67
2022/08/29 12:36:13;;;;;;;4.53;1.30;;;24.80;45.50;23.80;101767.00;;;;5077698;28;20129;-67
2022/08/29 12:39:06;;;;;;;3.38;1.40;;;24.80;45.50;23.80;101765.00;;;;5102149;27;20047;-67